sensor_id;sensor_type;location;lat;lon;timestamp;pressure;altitude;pressure_sealevel;temperature;humidity
48624;BME280;34422;45.802;16.114;2022-08-27T00:01:12;99612.84;;;20.82;100.00
48624;BME280;34422;45.802;16.114;2022-08-27T00:03:42;99611.50;;;20.79;100.00
48624;BME280;34422;45.802;16.114;2022-08-27T00:06:17;99606.00;;;20.79;100.00
48624;BME280;34422;45.802;16.114;2022-08-27T00:08:45;99607.66;;;20.80;100.00
48624;BME280;34422;45.802;16.114;2022-08-27T00:11:13;99607.06;;;20.83;100.00
48624;BME280;34422;45.802;16.114;2022-08-27T00:13:40;99610.91;;;20.82;100.00
48624;BME280;34422;45.802;16.114;2022-08-27T00:16:09;99610.41;;;20.80;100.00
48624;BME280;34422;45.802;16.114;2022-08-27T00:18:37;99612.13;;;20.76;100.00
48624;BME280;34422;45.802;16.114;2022-08-27T00:21:05;99609.13;;;20.73;100.00
48624;BME280;34422;45.802;16.114;2022-08-27T00:23:32;99607.72;;;20.75;100.00
48624;BME280;34422;45.802;16.114;2022-08-27T00:25:59;99599.53;;;20.70;100.00
48624;BME280;34422;45.802;16.114;2022-08-27T00:28:27;99601.22;;;20.66;100.00
48624;BME280;34422;45.802;16.114;2022-08-27T00:30:54;99601.03;;;20.63;100.00
48624;BME280;34422;45.802;16.114;2022-08-27T00:33:22;99600.78;;;20.59;100.00
48624;BME280;34422;45.802;16.114;2022-08-27T00:35:50;99588.16;;;20.58;100.00
48624;BME280;34422;45.802;16.114;2022-08-27T00:38:17;99593.66;;;20.58;100.00
48624;BME280;34422;45.802;16.114;2022-08-27T00:40:44;99589.56;;;20.55;100.00
48624;BME280;34422;45.802;16.114;2022-08-27T00:43:19;99596.47;;;20.53;100.00
48624;BME280;34422;45.802;16.114;2022-08-27T00:45:46;99596.47;;;20.53;100.00
48624;BME280;34422;45.802;16.114;2022-08-27T00:48:15;99595.44;;;20.49;100.00
48624;BME280;34422;45.802;16.114;2022-08-27T00:50:46;99597.66;;;20.47;100.00
48624;BME280;34422;45.802;16.114;2022-08-27T00:53:20;99594.38;;;20.45;100.00
48624;BME280;34422;45.802;16.114;2022-08-27T00:55:57;99591.69;;;20.40;100.00
48624;BME280;34422;45.802;16.114;2022-08-27T00:58:29;99602.66;;;20.40;100.00
48624;BME280;34422;45.802;16.114;2022-08-27T01:00:58;99600.44;;;20.42;100.00
48624;BME280;34422;45.802;16.114;2022-08-27T01:03:26;99601.28;;;20.42;100.00
48624;BME280;34422;45.802;16.114;2022-08-27T01:05:55;99602.97;;;20.38;100.00
48624;BME280;34422;45.802;16.114;2022-08-27T01:08:27;99599.41;;;20.38;100.00
48624;BME280;34422;45.802;16.114;2022-08-27T01:10:56;99596.97;;;20.36;100.00
48624;BME280;34422;45.802;16.114;2022-08-27T01:13:26;99593.66;;;20.34;100.00
48624;BME280;34422;45.802;16.114;2022-08-27T01:15:54;99594.75;;;20.33;100.00
48624;BME280;34422;45.802;16.114;2022-08-27T01:18:26;99595.63;;;20.29;100.00
48624;BME280;34422;45.802;16.114;2022-08-27T01:20:59;99601.72;;;20.26;100.00
48624;BME280;34422;45.802;16.114;2022-08-27T01:23:39;99606.16;;;20.21;100.00
48624;BME280;34422;45.802;16.114;2022-08-27T01:26:12;99603.72;;;20.20;100.00
48624;BME280;34422;45.802;16.114;2022-08-27T01:28:41;99602.97;;;20.09;100.00
48624;BME280;34422;45.802;16.114;2022-08-27T01:31:11;99604.16;;;20.03;100.00
48624;BME280;34422;45.802;16.114;2022-08-27T01:33:38;99602.06;;;19.95;100.00
48624;BME280;34422;45.802;16.114;2022-08-27T01:36:06;99611.41;;;19.94;100.00
48624;BME280;34422;45.802;16.114;2022-08-27T01:38:33;99604.84;;;19.90;100.00
48624;BME280;34422;45.802;16.114;2022-08-27T01:41:00;99606.50;;;19.91;100.00
48624;BME280;34422;45.802;16.114;2022-08-27T01:43:28;99610.91;;;19.87;100.00
48624;BME280;34422;45.802;16.114;2022-08-27T01:45:56;99613.13;;;19.85;100.00
48624;BME280;34422;45.802;16.114;2022-08-27T01:48:24;99611.19;;;19.85;100.00
48624;BME280;34422;45.802;16.114;2022-08-27T01:50:51;99612.59;;;19.83;100.00
48624;BME280;34422;45.802;16.114;2022-08-27T01:53:20;99613.31;;;19.65;100.00
48624;BME280;34422;45.802;16.114;2022-08-27T01:55:49;99613.41;;;19.55;100.00
48624;BME280;34422;45.802;16.114;2022-08-27T01:58:28;99613.41;;;19.55;100.00
48624;BME280;34422;45.802;16.114;2022-08-27T02:00:58;99620.53;;;19.56;100.00
48624;BME280;34422;45.802;16.114;2022-08-27T02:03:26;99620.53;;;19.56;100.00
48624;BME280;34422;45.802;16.114;2022-08-27T02:05:52;99617.91;;;19.40;100.00
48624;BME280;34422;45.802;16.114;2022-08-27T02:08:20;99611.34;;;19.36;100.00
48624;BME280;34422;45.802;16.114;2022-08-27T02:10:48;99616.81;;;19.36;100.00
48624;BME280;34422;45.802;16.114;2022-08-27T02:13:15;99627.22;;;19.39;100.00
48624;BME280;34422;45.802;16.114;2022-08-27T02:15:43;99625.81;;;19.42;100.00
48624;BME280;34422;45.802;16.114;2022-08-27T02:18:10;99628.88;;;19.40;100.00
48624;BME280;34422;45.802;16.114;2022-08-27T02:20:38;99625.00;;;19.41;100.00
48624;BME280;34422;45.802;16.114;2022-08-27T02:23:05;99620.09;;;19.38;100.00
48624;BME280;34422;45.802;16.114;2022-08-27T02:25:32;99619.50;;;19.41;100.00
48624;BME280;34422;45.802;16.114;2022-08-27T02:27:59;99620.94;;;19.39;100.00
48624;BME280;34422;45.802;16.114;2022-08-27T02:30:28;99620.09;;;19.38;100.00
48624;BME280;34422;45.802;16.114;2022-08-27T02:32:58;99632.19;;;19.37;100.00
48624;BME280;34422;45.802;16.114;2022-08-27T02:35:27;99620.13;;;19.33;100.00
48624;BME280;34422;45.802;16.114;2022-08-27T02:37:54;99621.22;;;19.32;100.00
48624;BME280;34422;45.802;16.114;2022-08-27T02:40:22;99621.22;;;19.32;100.00
48624;BME280;34422;45.802;16.114;2022-08-27T02:42:50;99619.56;;;19.36;100.00
48624;BME280;34422;45.802;16.114;2022-08-27T02:45:17;99630.81;;;19.35;100.00
48624;BME280;34422;45.802;16.114;2022-08-27T02:47:44;99615.75;;;19.32;100.00
48624;BME280;34422;45.802;16.114;2022-08-27T02:50:11;99616.03;;;19.31;100.00
48624;BME280;34422;45.802;16.114;2022-08-27T02:52:39;99619.59;;;19.31;100.00
48624;BME280;34422;45.802;16.114;2022-08-27T02:55:06;99620.97;;;19.29;100.00
48624;BME280;34422;45.802;16.114;2022-08-27T02:57:33;99616.09;;;19.26;100.00
48624;BME280;34422;45.802;16.114;2022-08-27T03:00:07;99617.19;;;19.25;100.00
48624;BME280;34422;45.802;16.114;2022-08-27T03:02:34;99620.75;;;19.25;100.00
48624;BME280;34422;45.802;16.114;2022-08-27T03:05:02;99617.47;;;19.23;100.00
48624;BME280;34422;45.802;16.114;2022-08-27T03:07:29;99625.16;;;19.21;100.00
48624;BME280;34422;45.802;16.114;2022-08-27T03:09:56;99621.88;;;19.19;100.00
48624;BME280;34422;45.802;16.114;2022-08-27T03:12:23;99620.53;;;19.16;100.00
48624;BME280;34422;45.802;16.114;2022-08-27T03:14:49;99615.91;;;19.12;100.00
48624;BME280;34422;45.802;16.114;2022-08-27T03:17:16;99625.19;;;19.16;100.00
48624;BME280;34422;45.802;16.114;2022-08-27T03:20:02;99620.28;;;19.13;100.00
48624;BME280;34422;45.802;16.114;2022-08-27T03:22:30;99621.97;;;19.09;100.00
48624;BME280;34422;45.802;16.114;2022-08-27T03:24:56;99623.34;;;19.06;100.00
48624;BME280;34422;45.802;16.114;2022-08-27T03:27:23;99620.88;;;19.05;100.00
48624;BME280;34422;45.802;16.114;2022-08-27T03:29:50;99616.53;;;18.99;100.00
48624;BME280;34422;45.802;16.114;2022-08-27T03:32:17;99611.06;;;18.99;100.00
48624;BME280;34422;45.802;16.114;2022-08-27T03:34:43;99622.53;;;19.01;100.00
48624;BME280;34422;45.802;16.114;2022-08-27T03:37:10;99609.69;;;18.96;100.00
48624;BME280;34422;45.802;16.114;2022-08-27T03:39:37;99618.75;;;18.97;100.00
48624;BME280;34422;45.802;16.114;2022-08-27T03:42:04;99612.19;;;18.93;100.00
48624;BME280;34422;45.802;16.114;2022-08-27T03:44:31;99612.19;;;18.93;100.00
48624;BME280;34422;45.802;16.114;2022-08-27T03:46:58;99609.44;;;18.93;100.00
48624;BME280;34422;45.802;16.114;2022-08-27T03:49:26;99608.91;;;18.91;100.00
48624;BME280;34422;45.802;16.114;2022-08-27T03:51:52;99611.09;;;18.89;100.00
48624;BME280;34422;45.802;16.114;2022-08-27T03:54:20;99610.59;;;18.81;100.00
48624;BME280;34422;45.802;16.114;2022-08-27T03:56:47;99610.66;;;18.71;100.00
48624;BME280;34422;45.802;16.114;2022-08-27T03:59:14;99616.19;;;18.51;100.00
48624;BME280;34422;45.802;16.114;2022-08-27T04:01:42;99615.16;;;18.42;100.00
48624;BME280;34422;45.802;16.114;2022-08-27T04:04:10;99615.16;;;18.42;100.00
48624;BME280;34422;45.802;16.114;2022-08-27T04:06:38;99618.94;;;18.46;100.00
48624;BME280;34422;45.802;16.114;2022-08-27T04:09:05;99622.22;;;18.48;100.00
48624;BME280;34422;45.802;16.114;2022-08-27T04:11:33;99617.84;;;18.52;100.00
48624;BME280;34422;45.802;16.114;2022-08-27T04:14:02;99617.00;;;18.52;100.00
48624;BME280;34422;45.802;16.114;2022-08-27T04:16:31;99627.97;;;18.46;100.00
48624;BME280;34422;45.802;16.114;2022-08-27T04:19:00;99624.75;;;18.39;100.00
48624;BME280;34422;45.802;16.114;2022-08-27T04:21:28;99628.31;;;18.35;100.00
48624;BME280;34422;45.802;16.114;2022-08-27T04:23:57;99632.72;;;18.26;100.00
48624;BME280;34422;45.802;16.114;2022-08-27T04:26:23;99635.75;;;18.19;100.00
48624;BME280;34422;45.802;16.114;2022-08-27T04:28:50;99640.66;;;18.22;100.00
48624;BME280;34422;45.802;16.114;2022-08-27T04:31:18;99638.19;;;18.21;100.00
48624;BME280;34422;45.802;16.114;2022-08-27T04:33:45;99637.09;;;18.22;100.00
48624;BME280;34422;45.802;16.114;2022-08-27T04:36:12;99632.44;;;18.27;100.00
48624;BME280;34422;45.802;16.114;2022-08-27T04:38:39;99638.19;;;18.31;100.00
48624;BME280;34422;45.802;16.114;2022-08-27T04:41:09;99628.28;;;18.40;100.00
48624;BME280;34422;45.802;16.114;2022-08-27T04:43:47;99635.38;;;18.46;100.00
48624;BME280;34422;45.802;16.114;2022-08-27T04:46:26;99635.91;;;18.53;100.00
48624;BME280;34422;45.802;16.114;2022-08-27T04:48:55;99641.94;;;18.60;100.00
48624;BME280;34422;45.802;16.114;2022-08-27T04:51:23;99644.06;;;18.73;100.00
48624;BME280;34422;45.802;16.114;2022-08-27T04:53:51;99640.44;;;18.88;100.00
48624;BME280;34422;45.802;16.114;2022-08-27T04:56:19;99648.84;;;19.02;100.00
48624;BME280;34422;45.802;16.114;2022-08-27T04:58:48;99643.84;;;19.14;100.00
48624;BME280;34422;45.802;16.114;2022-08-27T05:01:18;99642.09;;;19.28;100.00
48624;BME280;34422;45.802;16.114;2022-08-27T05:03:46;99650.28;;;19.38;100.00
48624;BME280;34422;45.802;16.114;2022-08-27T05:06:13;99646.91;;;19.51;100.00
48624;BME280;34422;45.802;16.114;2022-08-27T05:08:40;99652.56;;;19.65;100.00
48624;BME280;34422;45.802;16.114;2022-08-27T05:11:10;99653.00;;;19.77;100.00
48624;BME280;34422;45.802;16.114;2022-08-27T05:13:38;99652.47;;;19.75;100.00
48624;BME280;34422;45.802;16.114;2022-08-27T05:16:07;99649.75;;;19.75;100.00
48624;BME280;34422;45.802;16.114;2022-08-27T05:18:35;99647.97;;;19.90;100.00
48624;BME280;34422;45.802;16.114;2022-08-27T05:21:03;99644.25;;;20.04;100.00
48624;BME280;34422;45.802;16.114;2022-08-27T05:23:32;99646.06;;;20.14;100.00
48624;BME280;34422;45.802;16.114;2022-08-27T05:25:59;99645.22;;;20.18;100.00
48624;BME280;34422;45.802;16.114;2022-08-27T05:28:27;99653.88;;;20.31;100.00
48624;BME280;34422;45.802;16.114;2022-08-27T05:31:03;99651.50;;;20.48;100.00
48624;BME280;34422;45.802;16.114;2022-08-27T05:33:30;99644.81;;;20.54;100.00
48624;BME280;34422;45.802;16.114;2022-08-27T05:35:58;99649.78;;;20.52;100.00
48624;BME280;34422;45.802;16.114;2022-08-27T05:38:27;99647.44;;;20.64;100.00
48624;BME280;34422;45.802;16.114;2022-08-27T05:41:07;99645.31;;;20.80;100.00
48624;BME280;34422;45.802;16.114;2022-08-27T05:43:37;99651.16;;;20.97;100.00
48624;BME280;34422;45.802;16.114;2022-08-27T05:46:08;99657.31;;;21.08;100.00
48624;BME280;34422;45.802;16.114;2022-08-27T05:48:36;99651.09;;;21.21;100.00
48624;BME280;34422;45.802;16.114;2022-08-27T05:51:18;99650.88;;;21.36;100.00
48624;BME280;34422;45.802;16.114;2022-08-27T05:53:45;99652.41;;;21.61;100.00
48624;BME280;34422;45.802;16.114;2022-08-27T05:56:14;99659.53;;;21.81;100.00
48624;BME280;34422;45.802;16.114;2022-08-27T05:58:41;99649.97;;;21.92;100.00
48624;BME280;34422;45.802;16.114;2022-08-27T06:01:26;99658.41;;;22.14;100.00
48624;BME280;34422;45.802;16.114;2022-08-27T06:03:54;99659.75;;;22.30;100.00
48624;BME280;34422;45.802;16.114;2022-08-27T06:06:21;99670.94;;;22.80;100.00
48624;BME280;34422;45.802;16.114;2022-08-27T06:08:49;99667.03;;;22.67;100.00
48624;BME280;34422;45.802;16.114;2022-08-27T06:11:17;99657.81;;;22.72;100.00
48624;BME280;34422;45.802;16.114;2022-08-27T06:13:45;99661.63;;;22.90;100.00
48624;BME280;34422;45.802;16.114;2022-08-27T06:16:15;99662.16;;;23.28;100.00
48624;BME280;34422;45.802;16.114;2022-08-27T06:18:44;99663.41;;;23.22;100.00
48624;BME280;34422;45.802;16.114;2022-08-27T06:21:12;99665.03;;;23.59;100.00
48624;BME280;34422;45.802;16.114;2022-08-27T06:23:40;99666.19;;;24.11;100.00
48624;BME280;34422;45.802;16.114;2022-08-27T06:26:08;99674.63;;;24.06;100.00
48624;BME280;34422;45.802;16.114;2022-08-27T06:28:36;99663.69;;;24.23;100.00
48624;BME280;34422;45.802;16.114;2022-08-27T06:31:17;99672.38;;;24.78;100.00
48624;BME280;34422;45.802;16.114;2022-08-27T06:33:44;99681.63;;;25.31;100.00
48624;BME280;34422;45.802;16.114;2022-08-27T06:36:14;99679.50;;;25.19;100.00
48624;BME280;34422;45.802;16.114;2022-08-27T06:38:41;99681.16;;;25.55;100.00
48624;BME280;34422;45.802;16.114;2022-08-27T06:41:12;99683.91;;;25.11;100.00
48624;BME280;34422;45.802;16.114;2022-08-27T06:43:41;99688.94;;;25.09;100.00
48624;BME280;34422;45.802;16.114;2022-08-27T06:46:13;99684.53;;;25.08;100.00
48624;BME280;34422;45.802;16.114;2022-08-27T06:48:40;99683.75;;;25.34;100.00
48624;BME280;34422;45.802;16.114;2022-08-27T06:51:15;99687.97;;;25.57;98.90
48624;BME280;34422;45.802;16.114;2022-08-27T06:53:44;99685.25;;;25.74;99.41
48624;BME280;34422;45.802;16.114;2022-08-27T06:56:12;99690.59;;;26.61;93.45
48624;BME280;34422;45.802;16.114;2022-08-27T06:58:40;99690.44;;;26.02;98.42
48624;BME280;34422;45.802;16.114;2022-08-27T07:01:16;99692.38;;;26.10;94.95
48624;BME280;34422;45.802;16.114;2022-08-27T07:03:44;99697.88;;;27.12;89.53
48624;BME280;34422;45.802;16.114;2022-08-27T07:06:13;99696.09;;;27.78;84.48
48624;BME280;34422;45.802;16.114;2022-08-27T07:08:40;99696.66;;;28.05;82.03
48624;BME280;34422;45.802;16.114;2022-08-27T07:11:08;99695.25;;;27.99;83.49
48624;BME280;34422;45.802;16.114;2022-08-27T07:13:37;99696.38;;;27.85;84.50
48624;BME280;34422;45.802;16.114;2022-08-27T07:16:09;99700.91;;;28.80;80.98
48624;BME280;34422;45.802;16.114;2022-08-27T07:18:37;99697.94;;;27.74;84.94
48624;BME280;34422;45.802;16.114;2022-08-27T07:21:06;99701.94;;;28.88;79.79
48624;BME280;34422;45.802;16.114;2022-08-27T07:23:34;99701.25;;;29.03;78.36
48624;BME280;34422;45.802;16.114;2022-08-27T07:26:04;99720.69;;;29.64;73.47
48624;BME280;34422;45.802;16.114;2022-08-27T07:28:32;99706.22;;;29.22;77.67
48624;BME280;34422;45.802;16.114;2022-08-27T07:30:59;99704.00;;;28.67;78.08
48624;BME280;34422;45.802;16.114;2022-08-27T07:33:26;99706.00;;;29.79;69.19
48624;BME280;34422;45.802;16.114;2022-08-27T07:35:53;99703.91;;;29.24;75.46
48624;BME280;34422;45.802;16.114;2022-08-27T07:38:20;99702.53;;;29.70;71.58
48624;BME280;34422;45.802;16.114;2022-08-27T07:40:47;99704.50;;;29.05;72.43
48624;BME280;34422;45.802;16.114;2022-08-27T07:43:13;99710.38;;;29.28;75.67
48624;BME280;34422;45.802;16.114;2022-08-27T07:46:00;99711.06;;;29.89;72.87
48624;BME280;34422;45.802;16.114;2022-08-27T07:48:27;99720.06;;;30.54;68.49
48624;BME280;34422;45.802;16.114;2022-08-27T07:50:55;99719.44;;;29.49;70.72
48624;BME280;34422;45.802;16.114;2022-08-27T07:53:22;99713.31;;;29.07;73.32
48624;BME280;34422;45.802;16.114;2022-08-27T07:55:49;99714.22;;;29.11;73.94
48624;BME280;34422;45.802;16.114;2022-08-27T07:58:16;99721.44;;;29.12;74.65
48624;BME280;34422;45.802;16.114;2022-08-27T08:00:44;99717.50;;;28.89;76.52
48624;BME280;34422;45.802;16.114;2022-08-27T08:03:11;99718.63;;;29.89;70.50
48624;BME280;34422;45.802;16.114;2022-08-27T08:05:42;99715.09;;;30.04;68.61
48624;BME280;34422;45.802;16.114;2022-08-27T08:08:09;99716.28;;;30.94;64.28
48624;BME280;34422;45.802;16.114;2022-08-27T08:10:38;99716.22;;;30.59;65.97
48624;BME280;34422;45.802;16.114;2022-08-27T08:13:06;99723.50;;;30.63;64.63
48624;BME280;34422;45.802;16.114;2022-08-27T08:15:33;99724.13;;;30.72;63.48
48624;BME280;34422;45.802;16.114;2022-08-27T08:18:00;99720.34;;;30.06;66.01
48624;BME280;34422;45.802;16.114;2022-08-27T08:20:27;99723.50;;;30.20;66.43
48624;BME280;34422;45.802;16.114;2022-08-27T08:22:54;99723.38;;;30.00;66.52
48624;BME280;34422;45.802;16.114;2022-08-27T08:25:21;99728.88;;;31.19;60.80
48624;BME280;34422;45.802;16.114;2022-08-27T08:27:48;99729.06;;;31.26;60.19
48624;BME280;34422;45.802;16.114;2022-08-27T08:30:14;99722.56;;;30.91;60.17
48624;BME280;34422;45.802;16.114;2022-08-27T08:32:41;99724.47;;;31.69;58.23
48624;BME280;34422;45.802;16.114;2022-08-27T08:35:09;99723.38;;;31.23;61.66
48624;BME280;34422;45.802;16.114;2022-08-27T08:37:36;99721.38;;;30.45;62.91
48624;BME280;34422;45.802;16.114;2022-08-27T08:40:04;99724.03;;;32.25;58.30
48624;BME280;34422;45.802;16.114;2022-08-27T08:42:43;99730.41;;;31.87;59.75
48624;BME280;34422;45.802;16.114;2022-08-27T08:45:14;99729.50;;;33.09;55.37
48624;BME280;34422;45.802;16.114;2022-08-27T08:47:52;99720.63;;;32.58;55.90
48624;BME280;34422;45.802;16.114;2022-08-27T08:50:27;99724.47;;;33.44;56.29
48624;BME280;34422;45.802;16.114;2022-08-27T08:53:06;99728.75;;;33.12;55.71
48624;BME280;34422;45.802;16.114;2022-08-27T08:55:44;99730.38;;;32.67;57.50
48624;BME280;34422;45.802;16.114;2022-08-27T08:58:46;99721.97;;;32.67;55.54
48624;BME280;34422;45.802;16.114;2022-08-27T09:01:17;99725.78;;;31.75;56.65
48624;BME280;34422;45.802;16.114;2022-08-27T09:03:53;99732.09;;;32.30;56.17
48624;BME280;34422;45.802;16.114;2022-08-27T09:06:40;99732.47;;;32.09;57.77
48624;BME280;34422;45.802;16.114;2022-08-27T09:12:26;99728.84;;;30.40;65.04
48624;BME280;34422;45.802;16.114;2022-08-27T09:14:56;99721.97;;;30.82;63.77
48624;BME280;34422;45.802;16.114;2022-08-27T09:17:24;99726.94;;;30.72;61.93
48624;BME280;34422;45.802;16.114;2022-08-27T09:19:51;99723.84;;;30.78;62.40
48624;BME280;34422;45.802;16.114;2022-08-27T09:25:23;99718.25;;;30.78;62.86
48624;BME280;34422;45.802;16.114;2022-08-27T09:27:53;99717.91;;;31.45;62.32
48624;BME280;34422;45.802;16.114;2022-08-27T09:30:23;99719.88;;;31.45;60.37
48624;BME280;34422;45.802;16.114;2022-08-27T09:32:53;99722.63;;;31.41;60.65
48624;BME280;34422;45.802;16.114;2022-08-27T09:35:25;99707.53;;;30.64;64.25
48624;BME280;34422;45.802;16.114;2022-08-27T09:37:54;99714.91;;;31.19;65.37
48624;BME280;34422;45.802;16.114;2022-08-27T09:40:31;99708.19;;;30.89;66.59
48624;BME280;34422;45.802;16.114;2022-08-27T09:43:18;99702.97;;;31.38;62.07
48624;BME280;34422;45.802;16.114;2022-08-27T09:45:51;99710.69;;;31.44;63.36
48624;BME280;34422;45.802;16.114;2022-08-27T09:48:21;99710.41;;;31.50;61.04
48624;BME280;34422;45.802;16.114;2022-08-27T09:50:51;99701.81;;;31.58;59.10
48624;BME280;34422;45.802;16.114;2022-08-27T09:56:04;99706.56;;;30.88;60.83
48624;BME280;34422;45.802;16.114;2022-08-27T10:01:29;99701.13;;;31.26;57.40
48624;BME280;34422;45.802;16.114;2022-08-27T10:04:09;99692.66;;;31.77;57.57
48624;BME280;34422;45.802;16.114;2022-08-27T10:06:37;99689.13;;;31.80;57.71
48624;BME280;34422;45.802;16.114;2022-08-27T10:09:13;99688.16;;;31.92;56.74
48624;BME280;34422;45.802;16.114;2022-08-27T10:12:11;99688.50;;;31.71;55.40
48624;BME280;34422;45.802;16.114;2022-08-27T10:14:43;99682.69;;;31.99;54.90
48624;BME280;34422;45.802;16.114;2022-08-27T10:30:07;99674.25;;;31.06;54.83
48624;BME280;34422;45.802;16.114;2022-08-27T10:35:19;99680.09;;;31.52;52.08
48624;BME280;34422;45.802;16.114;2022-08-27T10:48:58;99668.66;;;31.95;52.04
48624;BME280;34422;45.802;16.114;2022-08-27T10:51:30;99668.84;;;31.87;54.75
48624;BME280;34422;45.802;16.114;2022-08-27T10:54:07;99670.88;;;31.67;57.41
48624;BME280;34422;45.802;16.114;2022-08-27T10:56:53;99672.03;;;31.85;53.57
48624;BME280;34422;45.802;16.114;2022-08-27T11:00:11;99665.84;;;31.95;53.51
48624;BME280;34422;45.802;16.114;2022-08-27T11:02:33;99661.75;;;31.70;55.47
48624;BME280;34422;45.802;16.114;2022-08-27T11:05:13;99660.03;;;31.85;54.65
48624;BME280;34422;45.802;16.114;2022-08-27T11:07:45;99656.72;;;31.79;53.58
48624;BME280;34422;45.802;16.114;2022-08-27T11:12:49;99649.44;;;32.17;52.93
48624;BME280;34422;45.802;16.114;2022-08-27T11:15:24;99641.41;;;32.15;53.52
48624;BME280;34422;45.802;16.114;2022-08-27T11:20:53;99647.63;;;32.47;50.07
48624;BME280;34422;45.802;16.114;2022-08-27T11:23:35;99645.78;;;32.58;49.08
48624;BME280;34422;45.802;16.114;2022-08-27T11:26:04;99642.34;;;32.68;47.43
48624;BME280;34422;45.802;16.114;2022-08-27T11:28:46;99637.66;;;32.72;46.53
48624;BME280;34422;45.802;16.114;2022-08-27T11:31:36;99630.78;;;32.70;45.54
48624;BME280;34422;45.802;16.114;2022-08-27T11:42:30;99626.13;;;32.55;45.88
48624;BME280;34422;45.802;16.114;2022-08-27T11:45:17;99623.34;;;32.32;46.40
48624;BME280;34422;45.802;16.114;2022-08-27T11:47:57;99618.72;;;32.43;46.11
48624;BME280;34422;45.802;16.114;2022-08-27T11:50:26;99620.19;;;32.82;46.21
48624;BME280;34422;45.802;16.114;2022-08-27T11:52:59;99614.34;;;32.68;46.37
48624;BME280;34422;45.802;16.114;2022-08-27T11:55:35;99609.34;;;32.81;44.54
48624;BME280;34422;45.802;16.114;2022-08-27T12:00:46;99613.16;;;32.92;42.86
48624;BME280;34422;45.802;16.114;2022-08-27T12:03:27;99608.00;;;32.98;43.80
48624;BME280;34422;45.802;16.114;2022-08-27T12:24:40;99595.59;;;32.46;46.09
48624;BME280;34422;45.802;16.114;2022-08-27T12:27:25;99596.56;;;32.57;45.13
48624;BME280;34422;45.802;16.114;2022-08-27T12:30:47;99596.47;;;32.50;44.12
48624;BME280;34422;45.802;16.114;2022-08-27T12:32:49;99594.31;;;32.66;44.25
48624;BME280;34422;45.802;16.114;2022-08-27T12:38:09;99583.91;;;32.67;43.20
48624;BME280;34422;45.802;16.114;2022-08-27T12:40:40;99587.91;;;32.66;45.55
48624;BME280;34422;45.802;16.114;2022-08-27T12:43:12;99582.31;;;32.66;45.19
48624;BME280;34422;45.802;16.114;2022-08-27T12:45:52;99583.25;;;32.73;44.87
48624;BME280;34422;45.802;16.114;2022-08-27T12:48:24;99585.00;;;32.85;45.14
48624;BME280;34422;45.802;16.114;2022-08-27T12:50:56;99584.91;;;32.55;45.08
48624;BME280;34422;45.802;16.114;2022-08-27T12:58:47;99571.66;;;32.75;42.53
48624;BME280;34422;45.802;16.114;2022-08-27T13:01:52;99576.53;;;32.81;42.55
48624;BME280;34422;45.802;16.114;2022-08-27T13:04:26;99570.41;;;32.72;43.45
48624;BME280;34422;45.802;16.114;2022-08-27T13:06:54;99574.16;;;32.57;44.27
48624;BME280;34422;45.802;16.114;2022-08-27T13:09:30;99571.91;;;32.66;42.99
48624;BME280;34422;45.802;16.114;2022-08-27T13:11:59;99565.25;;;32.74;42.82
48624;BME280;34422;45.802;16.114;2022-08-27T13:14:35;99566.44;;;32.73;41.98
48624;BME280;34422;45.802;16.114;2022-08-27T13:17:08;99562.53;;;32.81;41.40
48624;BME280;34422;45.802;16.114;2022-08-27T13:19:44;99555.22;;;32.73;41.70
48624;BME280;34422;45.802;16.114;2022-08-27T13:22:24;99554.53;;;32.80;41.75
48624;BME280;34422;45.802;16.114;2022-08-27T13:24:53;99552.63;;;32.88;41.71
48624;BME280;34422;45.802;16.114;2022-08-27T13:27:29;99550.13;;;32.79;42.17
48624;BME280;34422;45.802;16.114;2022-08-27T13:30:06;99549.53;;;32.70;41.94
48624;BME280;34422;45.802;16.114;2022-08-27T13:32:35;99548.63;;;32.62;41.23
48624;BME280;34422;45.802;16.114;2022-08-27T13:35:03;99534.94;;;32.57;42.25
48624;BME280;34422;45.802;16.114;2022-08-27T13:37:43;99537.22;;;32.48;41.97
48624;BME280;34422;45.802;16.114;2022-08-27T13:40:23;99538.47;;;32.51;41.65
48624;BME280;34422;45.802;16.114;2022-08-27T13:42:52;99530.88;;;32.51;41.27
48624;BME280;34422;45.802;16.114;2022-08-27T13:45:19;99526.97;;;32.59;41.20
48624;BME280;34422;45.802;16.114;2022-08-27T13:47:47;99535.66;;;32.51;42.71
48624;BME280;34422;45.802;16.114;2022-08-27T13:50:26;99540.53;;;32.57;40.25
48624;BME280;34422;45.802;16.114;2022-08-27T13:53:05;99534.94;;;32.57;40.54
48624;BME280;34422;45.802;16.114;2022-08-27T13:55:52;99538.94;;;32.56;40.37
48624;BME280;34422;45.802;16.114;2022-08-27T13:58:28;99541.06;;;32.40;41.04
48624;BME280;34422;45.802;16.114;2022-08-27T14:01:10;99550.25;;;32.37;40.97
48624;BME280;34422;45.802;16.114;2022-08-27T14:03:48;99549.81;;;32.35;39.89
48624;BME280;34422;45.802;16.114;2022-08-27T14:06:23;99557.50;;;32.41;40.85
48624;BME280;34422;45.802;16.114;2022-08-27T14:08:50;99569.34;;;32.08;41.90
48624;BME280;34422;45.802;16.114;2022-08-27T14:11:22;99558.06;;;32.28;40.72
48624;BME280;34422;45.802;16.114;2022-08-27T14:13:50;99563.06;;;32.38;40.41
48624;BME280;34422;45.802;16.114;2022-08-27T14:18:55;99567.66;;;32.49;40.51
48624;BME280;34422;45.802;16.114;2022-08-27T14:21:28;99570.16;;;32.32;40.99
48624;BME280;34422;45.802;16.114;2022-08-27T14:23:55;99566.34;;;32.43;39.82
48624;BME280;34422;45.802;16.114;2022-08-27T14:26:23;99563.22;;;32.48;40.55
48624;BME280;34422;45.802;16.114;2022-08-27T14:28:50;99558.22;;;32.61;39.29